Time;durP1;ratioP1;P1;durP2;ratioP2;P2;SDS_P1;SDS_P2;PMS_P1;PMS_P2;Temp;Humidity;BMP_temperature;BMP_pressure;BME280_temperature;BME280_humidity;BME280_pressure;Samples;Min_cycle;Max_cycle;Signal;HPM_P1;HPM_P2
2022/09/22 00:00:13;;;;;;;3.22;1.23;;;;;;;;;;4864729;29;20157;-78
2022/09/22 00:02:39;;;;;;;2.85;1.23;;;;;;;;;;4864848;29;20045;-79
2022/09/22 00:05:05;;;;;;;2.78;1.30;;;;;;;;;;4864949;29;20410;-79
2022/09/22 00:07:31;;;;;;;2.40;0.90;;;;;;;;;;4864708;29;20060;-79
2022/09/22 00:09:58;;;;;;;2.67;1.08;;;;;;;;;;4864555;29;20025;-79
2022/09/22 00:12:24;;;;;;;2.33;1.00;;;;;;;;;;4864755;29;20032;-78
2022/09/22 00:14:50;;;;;;;3.40;1.42;;;;;;;;;;4881454;29;20029;-79
2022/09/22 00:17:16;;;;;;;2.55;1.17;;;;;;;;;;4864499;29;20498;-78
2022/09/22 00:19:42;;;;;;;3.22;1.20;;;;;;;;;;4864728;29;20091;-78
2022/09/22 00:22:08;;;;;;;2.13;0.90;;;;;;;;;;4864502;29;20043;-79
2022/09/22 00:24:34;;;;;;;2.72;1.00;;;;;;;;;;4864477;29;20471;-79
2022/09/22 00:27:01;;;;;;;3.70;1.30;;;;;;;;;;4864507;29;20035;-79
2022/09/22 00:29:28;;;;;;;4.32;1.20;;;;;;;;;;4864328;29;20553;-79
2022/09/22 00:31:54;;;;;;;3.85;1.27;;;;;;;;;;4863383;29;20112;-78
2022/09/22 00:34:22;;;;;;;6.78;1.25;;;;;;;;;;4864262;29;20033;-79
2022/09/22 00:36:48;;;;;;;3.10;1.00;;;;;;;;;;4864375;29;20040;-78
2022/09/22 00:39:16;;;;;;;2.95;1.40;;;;;;;;;;4864212;29;20033;-78
2022/09/22 00:41:44;;;;;;;2.47;1.10;;;;;;;;;;4880926;29;20045;-77
2022/09/22 00:44:29;;;;;;;2.22;1.20;;;;;;;;;;4864220;29;20486;-79
2022/09/22 00:47:05;;;;;;;3.33;1.23;;;;;;;;;;4864172;29;20371;-79
2022/09/22 00:49:52;;;;;;;1.80;0.90;;;;;;;;;;4863857;29;20065;-79
2022/09/22 00:52:26;;;;;;;1.77;0.90;;;;;;;;;;4880710;29;20367;-79
2022/09/22 00:54:55;;;;;;;3.78;1.27;;;;;;;;;;4864072;29;20037;-78
2022/09/22 00:57:23;;;;;;;2.45;1.10;;;;;;;;;;4864128;29;20035;-79
2022/09/22 00:59:51;;;;;;;16.90;1.67;;;;;;;;;;4863921;29;20032;-79
2022/09/22 01:02:19;;;;;;;5.30;1.55;;;;;;;;;;4863745;29;20044;-78
2022/09/22 01:04:46;;;;;;;3.60;1.42;;;;;;;;;;4863714;29;20029;-79
2022/09/22 01:07:12;;;;;;;6.90;1.50;;;;;;;;;;4863610;29;20037;-79
2022/09/22 01:09:39;;;;;;;3.40;1.55;;;;;;;;;;4863761;29;20076;-78
2022/09/22 01:12:05;;;;;;;5.28;1.70;;;;;;;;;;4880470;29;20390;-79
2022/09/22 01:14:37;;;;;;;4.22;1.52;;;;;;;;;;4863410;29;20090;-79
2022/09/22 01:17:22;;;;;;;4.47;2.05;;;;;;;;;;4863547;29;20029;-80
2022/09/22 01:20:07;;;;;;;3.38;1.52;;;;;;;;;;4863586;29;20483;-77
2022/09/22 01:22:46;;;;;;;4.05;1.73;;;;;;;;;;4863443;29;20123;-79
2022/09/22 01:25:31;;;;;;;3.13;1.45;;;;;;;;;;4863437;29;20029;-79
2022/09/22 01:28:00;;;;;;;6.47;1.70;;;;;;;;;;4863444;29;20497;-78
2022/09/22 01:30:32;;;;;;;3.30;1.63;;;;;;;;;;4863357;29;20066;-80
2022/09/22 01:33:04;;;;;;;6.38;1.85;;;;;;;;;;4863174;29;20033;-79
2022/09/22 01:35:33;;;;;;;3.10;1.55;;;;;;;;;;4863297;29;20390;-79
2022/09/22 01:38:10;;;;;;;4.10;1.85;;;;;;;;;;4863249;29;20029;-79
2022/09/22 01:40:37;;;;;;;4.47;1.42;;;;;;;;;;4863142;29;20187;-78
2022/09/22 01:43:10;;;;;;;3.15;1.50;;;;;;;;;;4863000;29;20043;-79
2022/09/22 01:45:38;;;;;;;4.05;1.33;;;;;;;;;;4863163;29;20025;-79
2022/09/22 01:48:08;;;;;;;10.88;1.98;;;;;;;;;;4862975;29;20136;-79
2022/09/22 01:50:56;;;;;;;3.17;1.50;;;;;;;;;;4863213;29;20037;-78
2022/09/22 01:53:24;;;;;;;2.75;1.40;;;;;;;;;;4879814;29;20033;-79
2022/09/22 01:55:53;;;;;;;2.20;1.30;;;;;;;;;;4862818;29;20033;-78
2022/09/22 01:58:29;;;;;;;4.20;1.83;;;;;;;;;;4862873;29;20032;-79
2022/09/22 02:01:00;;;;;;;3.03;1.55;;;;;;;;;;4862981;29;20068;-79
2022/09/22 02:03:34;;;;;;;6.63;1.90;;;;;;;;;;4862974;29;20581;-78
2022/09/22 02:06:05;;;;;;;5.63;1.75;;;;;;;;;;4862721;29;20029;-78
2022/09/22 02:08:43;;;;;;;4.35;1.77;;;;;;;;;;4862772;29;20035;-79
2022/09/22 02:11:15;;;;;;;3.55;2.00;;;;;;;;;;4862866;29;20061;-79
2022/09/22 02:13:41;;;;;;;3.50;1.73;;;;;;;;;;4862726;29;20029;-79
2022/09/22 02:16:07;;;;;;;5.78;2.15;;;;;;;;;;4862566;29;20037;-79
2022/09/22 02:18:42;;;;;;;4.28;1.90;;;;;;;;;;4862561;29;20427;-79
2022/09/22 02:21:08;;;;;;;5.18;1.80;;;;;;;;;;4862654;29;20037;-78
2022/09/22 02:23:34;;;;;;;3.92;1.50;;;;;;;;;;4862546;29;20037;-79
2022/09/22 02:26:02;;;;;;;3.95;2.13;;;;;;;;;;4879368;29;20060;-78
2022/09/22 02:28:30;;;;;;;3.97;1.75;;;;;;;;;;4862688;29;20521;-79
2022/09/22 02:30:57;;;;;;;4.78;1.83;;;;;;;;;;4862676;29;20036;-79
2022/09/22 02:33:24;;;;;;;3.95;1.77;;;;;;;;;;4862492;29;20048;-79
2022/09/22 02:35:53;;;;;;;2.58;1.52;;;;;;;;;;4879193;29;20047;-79
2022/09/22 02:38:21;;;;;;;4.75;1.65;;;;;;;;;;4862501;29;20025;-79
2022/09/22 02:40:47;;;;;;;4.00;1.85;;;;;;;;;;4862452;29;20040;-79
2022/09/22 02:43:32;;;;;;;3.42;1.40;;;;;;;;;;4862532;29;20189;-79
2022/09/22 02:46:04;;;;;;;2.95;1.40;;;;;;;;;;4862397;29;20029;-78
2022/09/22 02:48:32;;;;;;;10.00;1.58;;;;;;;;;;4862207;29;20080;-76
2022/09/22 02:50:59;;;;;;;4.82;1.77;;;;;;;;;;4862443;29;20025;-78
2022/09/22 02:53:25;;;;;;;4.20;2.05;;;;;;;;;;4862145;29;20478;-78
2022/09/22 02:55:51;;;;;;;6.03;1.88;;;;;;;;;;4864525;29;20029;-78
2022/09/22 02:58:17;;;;;;;4.20;1.60;;;;;;;;;;4866068;29;20124;-78
2022/09/22 03:00:44;;;;;;;3.22;1.75;;;;;;;;;;4865846;29;20048;-78
2022/09/22 03:03:10;;;;;;;3.10;1.55;;;;;;;;;;4866010;29;20043;-79
2022/09/22 03:05:37;;;;;;;3.45;1.52;;;;;;;;;;4865867;29;20025;-80
2022/09/22 03:08:03;;;;;;;3.60;1.67;;;;;;;;;;4865795;29;20075;-79
2022/09/22 03:10:29;;;;;;;3.13;1.63;;;;;;;;;;4865813;29;20025;-79
2022/09/22 04:56:10;;;;;;;6.35;2.70;;;;;;;;;;4793321;27;20060;-80
2022/09/22 04:58:37;;;;;;;6.35;3.13;;;;;;;;;;4876413;29;20041;-75
2022/09/22 05:01:03;;;;;;;6.20;2.92;;;;;;;;;;4862257;29;20034;-75
2022/09/22 05:03:29;;;;;;;5.07;2.80;;;;;;;;;;4862816;29;20506;-75
2022/09/22 05:05:56;;;;;;;8.18;2.85;;;;;;;;;;4876430;29;20022;-73
2022/09/22 05:08:22;;;;;;;5.65;3.20;;;;;;;;;;4862216;29;20065;-77
2022/09/22 05:10:48;;;;;;;6.93;2.85;;;;;;;;;;4876373;29;20025;-78
2022/09/22 05:13:14;;;;;;;8.40;3.45;;;;;;;;;;4876200;29;20029;-76
2022/09/22 05:15:40;;;;;;;6.28;3.17;;;;;;;;;;4876350;29;20041;-75
2022/09/22 05:18:07;;;;;;;7.65;3.88;;;;;;;;;;4876130;29;20081;-75
2022/09/22 05:20:33;;;;;;;8.20;3.22;;;;;;;;;;4874146;29;20032;-73
2022/09/22 05:22:59;;;;;;;8.32;2.88;;;;;;;;;;4875913;29;20073;-73
2022/09/22 05:25:25;;;;;;;8.93;3.25;;;;;;;;;;4875652;29;20077;-73
2022/09/22 05:27:52;;;;;;;9.93;3.40;;;;;;;;;;4875907;29;20536;-73
2022/09/22 05:30:23;;;;;;;8.05;3.38;;;;;;;;;;4875714;29;20021;-73
2022/09/22 05:32:49;;;;;;;7.20;3.53;;;;;;;;;;4869176;29;20170;-74
2022/09/22 05:35:19;;;;;;;8.88;3.55;;;;;;;;;;4856033;29;20149;-74
2022/09/22 05:37:46;;;;;;;4.32;2.35;;;;;;;;;;4875348;29;20121;-75
2022/09/22 05:40:13;;;;;;;6.07;2.92;;;;;;;;;;4861175;29;20030;-74
2022/09/22 05:42:43;;;;;;;5.05;2.25;;;;;;;;;;4844599;29;20042;-74
2022/09/22 05:45:09;;;;;;;4.90;2.72;;;;;;;;;;4861174;29;20037;-74
2022/09/22 05:47:35;;;;;;;6.07;2.58;;;;;;;;;;4875322;29;20066;-75
2022/09/22 05:50:02;;;;;;;6.07;2.80;;;;;;;;;;4844223;29;20477;-74
2022/09/22 05:52:28;;;;;;;5.63;2.50;;;;;;;;;;4844609;29;20033;-74
2022/09/22 05:54:54;;;;;;;5.55;2.45;;;;;;;;;;4843720;29;20053;-75
2022/09/22 05:57:26;;;;;;;4.38;2.17;;;;;;;;;;4860912;29;20390;-74
2022/09/22 05:59:52;;;;;;;3.88;2.03;;;;;;;;;;4875202;29;20033;-73
2022/09/22 06:02:19;;;;;;;4.93;2.10;;;;;;;;;;4874824;29;20068;-74
2022/09/22 06:04:45;;;;;;;4.10;2.00;;;;;;;;;;4875212;29;20072;-74
2022/09/22 06:07:11;;;;;;;6.68;2.17;;;;;;;;;;4874982;29;20037;-74
2022/09/22 06:09:37;;;;;;;5.90;2.30;;;;;;;;;;4860671;29;20034;-75
2022/09/22 06:12:03;;;;;;;4.03;2.25;;;;;;;;;;4861536;29;20029;-74
2022/09/22 06:14:29;;;;;;;6.00;2.20;;;;;;;;;;4879070;29;20037;-74
2022/09/22 06:16:57;;;;;;;3.10;1.70;;;;;;;;;;4860611;29;20021;-74
2022/09/22 06:34:48;;;;;;;2.70;1.60;;;;;;;;;;4885351;23;20105;-91
2022/09/22 06:57:05;;;;;;;4.93;2.33;;;;;;;;;;5474885;23;20373;-93
2022/09/22 06:59:52;;;;;;;5.28;2.83;;;;;;;;;;4865260;29;20052;-92
2022/09/22 07:02:46;;;;;;;5.22;2.38;;;;;;;;;;4865358;29;20446;-92
2022/09/22 07:07:53;;;;;;;2.60;1.33;;;;;;;;;;4902227;23;20770;-91
2022/09/22 07:10:28;;;;;;;3.90;1.30;;;;;;;;;;4865292;29;20048;-93
2022/09/22 07:28:18;;;;;;;3.70;2.17;;;;;;;;;;4891769;29;20081;-86
2022/09/22 07:30:46;;;;;;;4.00;2.00;;;;;;;;;;4876700;29;20045;-91
2022/09/22 07:33:12;;;;;;;3.67;2.00;;;;;;;;;;4868456;29;20152;-90
2022/09/22 07:36:14;;;;;;;4.15;2.00;;;;;;;;;;4865071;29;20486;-90
2022/09/22 07:38:41;;;;;;;3.35;1.98;;;;;;;;;;4791004;29;20070;-92
2022/09/22 07:41:12;;;;;;;3.25;1.88;;;;;;;;;;4851155;29;20045;-91
2022/09/22 07:43:42;;;;;;;2.92;1.60;;;;;;;;;;4867979;29;20115;-91
2022/09/22 07:46:08;;;;;;;3.67;1.88;;;;;;;;;;4867375;29;20051;-91
2022/09/22 07:48:46;;;;;;;4.88;1.67;;;;;;;;;;4867505;29;20081;-93
2022/09/22 07:57:30;;;;;;;2.70;1.15;;;;;;;;;;4885484;29;20089;-93
2022/09/22 08:02:39;;;;;;;1.50;0.80;;;;;;;;;;4988035;23;20076;-92
2022/09/22 08:05:18;;;;;;;1.63;0.85;;;;;;;;;;4877307;29;20375;-93
2022/09/22 08:13:33;;;;;;;2.63;1.00;;;;;;;;;;5094713;23;20084;-89
2022/09/22 08:16:10;;;;;;;1.35;0.70;;;;;;;;;;4870504;29;20037;-93
2022/09/22 08:18:38;;;;;;;2.13;0.90;;;;;;;;;;4872645;29;20033;-91
2022/09/22 08:27:00;;;;;;;2.78;1.30;;;;;;;;;;5011149;23;20067;-92
2022/09/22 08:32:30;;;;;;;;;;;;;;;;;;4887488;29;20109;-92
2022/09/22 08:37:26;;;;;;;2.47;1.17;;;;;;;;;;5554760;23;20135;-90
2022/09/22 08:42:44;;;;;;;2.10;1.02;;;;;;;;;;4888563;29;20534;-90
2022/09/22 08:45:20;;;;;;;1.50;0.57;;;;;;;;;;4888830;23;20090;-89
2022/09/22 08:54:05;;;;;;;1.33;0.50;;;;;;;;;;4884897;29;20536;-91
2022/09/22 08:56:53;;;;;;;1.25;0.47;;;;;;;;;;4865405;29;20061;-90
2022/09/22 09:02:35;;;;;;;1.13;0.50;;;;;;;;;;4849804;29;20033;-90
2022/09/22 09:05:26;;;;;;;0.93;0.43;;;;;;;;;;4872931;29;20044;-91
2022/09/22 09:11:15;;;;;;;1.45;0.68;;;;;;;;;;4852712;29;20033;-90
2022/09/22 09:14:12;;;;;;;1.63;0.50;;;;;;;;;;4851587;29;20034;-91
2022/09/22 09:16:45;;;;;;;0.98;0.40;;;;;;;;;;4865623;29;20146;-87
2022/09/22 09:22:00;;;;;;;3.20;0.60;;;;;;;;;;4903442;24;20059;-92
2022/09/22 09:24:55;;;;;;;0.77;0.30;;;;;;;;;;4901564;23;20037;-92
2022/09/22 09:27:27;;;;;;;2.88;0.40;;;;;;;;;;4792731;29;20133;-93
2022/09/22 09:30:07;;;;;;;1.13;0.45;;;;;;;;;;4784954;29;20142;-92
2022/09/22 09:32:33;;;;;;;0.80;0.30;;;;;;;;;;4851030;29;20066;-92
2022/09/22 09:35:25;;;;;;;1.20;0.50;;;;;;;;;;4880305;29;20039;-94
2022/09/22 09:38:13;;;;;;;0.50;0.30;;;;;;;;;;4859820;29;20041;-90
2022/09/22 09:40:57;;;;;;;2.25;0.35;;;;;;;;;;4883069;29;20125;-93
2022/09/22 09:43:32;;;;;;;1.05;0.40;;;;;;;;;;4884494;29;20048;-91
2022/09/22 09:46:18;;;;;;;0.90;0.40;;;;;;;;;;4881632;29;20044;-91
2022/09/22 09:49:01;;;;;;;1.35;0.40;;;;;;;;;;4869073;29;20044;-92
2022/09/22 09:57:08;;;;;;;1.52;0.40;;;;;;;;;;4879348;29;20073;-95
2022/09/22 10:05:58;;;;;;;;;;;;;;;;;;4824473;29;20073;-94
2022/09/22 10:08:33;;;;;;;1.17;0.60;;;;;;;;;;4816299;29;19909;-94
2022/09/22 10:16:35;;;;;;;1.23;0.52;;;;;;;;;;5267313;23;20422;-93
2022/09/22 10:19:03;;;;;;;1.10;0.50;;;;;;;;;;4861939;29;20034;-91
2022/09/22 10:21:29;;;;;;;1.38;0.55;;;;;;;;;;4861554;29;20029;-91
2022/09/22 10:24:33;;;;;;;1.48;0.60;;;;;;;;;;4862351;29;20537;-91
2022/09/22 10:27:19;;;;;;;1.95;0.98;;;;;;;;;;4792914;29;20401;-94
2022/09/22 10:29:45;;;;;;;1.65;0.40;;;;;;;;;;4792561;29;20038;-92
2022/09/22 10:35:27;;;;;;;1.35;0.50;;;;;;;;;;4756328;30;20048;-92
2022/09/22 10:38:00;;;;;;;1.23;0.45;;;;;;;;;;4775465;29;20063;-93
2022/09/22 10:40:27;;;;;;;3.72;0.30;;;;;;;;;;4793342;29;20038;-94
2022/09/22 10:43:00;;;;;;;0.57;0.32;;;;;;;;;;4845680;29;20036;-92
2022/09/22 10:45:46;;;;;;;1.52;0.50;;;;;;;;;;4872500;23;20252;-93
2022/09/22 10:48:33;;;;;;;1.77;0.52;;;;;;;;;;4880718;29;20116;-94
2022/09/22 10:51:08;;;;;;;1.77;0.40;;;;;;;;;;4864547;29;20025;-95
2022/09/22 10:53:57;;;;;;;2.45;0.50;;;;;;;;;;4881413;29;20029;-92
2022/09/22 10:56:45;;;;;;;2.47;0.60;;;;;;;;;;4884794;29;20120;-93
2022/09/22 10:59:23;;;;;;;1.17;0.50;;;;;;;;;;4887520;29;20084;-94
2022/09/22 11:02:07;;;;;;;3.08;0.50;;;;;;;;;;4881466;29;20557;-90
2022/09/22 11:04:46;;;;;;;1.25;0.70;;;;;;;;;;4884946;29;20040;-92
2022/09/22 11:16:29;;;;;;;1.30;0.70;;;;;;;;;;4929107;24;20149;-95
2022/09/22 11:31:41;;;;;;;1.90;1.00;;;;;;;;;;5220814;23;20137;-93
2022/09/22 11:56:05;;;;;;;2.55;1.10;;;;;;;;;;4724740;30;20148;-96
2022/09/22 11:58:52;;;;;;;5.05;0.90;;;;;;;;;;4706569;30;20033;-95
2022/09/22 13:13:42;;;;;;;1.80;0.93;;;;;;;;;;5544968;23;20049;-91
2022/09/22 13:16:14;;;;;;;2.00;1.10;;;;;;;;;;4866982;29;20048;-93
2022/09/22 13:18:44;;;;;;;2.22;0.88;;;;;;;;;;4867537;29;20100;-96
2022/09/22 13:21:13;;;;;;;1.73;0.90;;;;;;;;;;4884541;29;20478;-93
2022/09/22 13:23:49;;;;;;;2.00;1.00;;;;;;;;;;4871152;29;20435;-93
2022/09/22 13:26:17;;;;;;;8.35;0.90;;;;;;;;;;4871197;29;20052;-93
2022/09/22 13:31:27;;;;;;;1.88;0.93;;;;;;;;;;4972869;23;20052;-95
2022/09/22 13:33:57;;;;;;;1.50;0.70;;;;;;;;;;4870387;29;20033;-93
2022/09/22 13:36:24;;;;;;;3.60;0.93;;;;;;;;;;4877570;29;20045;-93
2022/09/22 13:38:54;;;;;;;1.80;1.00;;;;;;;;;;4888639;29;20036;-95
2022/09/22 13:41:29;;;;;;;3.42;0.98;;;;;;;;;;4870548;29;20036;-93
2022/09/22 13:44:11;;;;;;;3.08;1.08;;;;;;;;;;4877365;29;20029;-95
2022/09/22 13:46:40;;;;;;;1.70;0.90;;;;;;;;;;4881216;29;20450;-94
2022/09/22 13:49:11;;;;;;;1.42;0.80;;;;;;;;;;4869877;29;20032;-96
2022/09/22 13:51:37;;;;;;;2.88;0.80;;;;;;;;;;4868237;29;20072;-95
2022/09/22 13:54:03;;;;;;;2.20;0.88;;;;;;;;;;4869329;29;20036;-96
2022/09/22 13:59:53;;;;;;;1.77;0.88;;;;;;;;;;4887692;29;20071;-95
2022/09/22 14:02:30;;;;;;;2.95;0.90;;;;;;;;;;4865271;29;20021;-95
2022/09/22 14:05:25;;;;;;;1.85;1.15;;;;;;;;;;4866776;29;20036;-95
2022/09/22 14:08:01;;;;;;;2.53;1.05;;;;;;;;;;4869626;29;20085;-96
2022/09/22 14:10:45;;;;;;;2.17;0.85;;;;;;;;;;4869122;29;20033;-94
2022/09/22 14:13:34;;;;;;;1.80;0.88;;;;;;;;;;4870634;29;20053;-96
2022/09/22 14:16:06;;;;;;;2.00;0.90;;;;;;;;;;4870993;29;20063;-95
2022/09/22 14:18:44;;;;;;;1.88;0.88;;;;;;;;;;4866702;29;20040;-96
2022/09/22 14:21:11;;;;;;;2.33;1.00;;;;;;;;;;4869021;29;20032;-94
2022/09/22 14:23:42;;;;;;;2.05;1.10;;;;;;;;;;4867913;29;20505;-94
2022/09/22 14:26:22;;;;;;;2.38;1.08;;;;;;;;;;4868006;29;20435;-95
2022/09/22 14:28:48;;;;;;;1.92;0.85;;;;;;;;;;4867118;29;20126;-96
2022/09/22 14:31:15;;;;;;;1.95;1.00;;;;;;;;;;4885531;29;20033;-94
2022/09/22 14:33:45;;;;;;;3.13;1.35;;;;;;;;;;4878153;29;20029;-95
2022/09/22 14:36:16;;;;;;;4.75;2.20;;;;;;;;;;4870053;29;20029;-96
2022/09/22 14:38:44;;;;;;;3.83;1.80;;;;;;;;;;4884836;29;20021;-94
2022/09/22 14:41:25;;;;;;;2.35;1.30;;;;;;;;;;4885253;29;20044;-96
2022/09/22 14:43:55;;;;;;;4.00;1.88;;;;;;;;;;4930351;23;20054;-94
2022/09/22 14:46:33;;;;;;;8.15;3.28;;;;;;;;;;4860503;29;20042;-96
2022/09/22 14:49:36;;;;;;;6.95;3.33;;;;;;;;;;4861797;29;20056;-96
2022/09/22 14:52:28;;;;;;;5.65;2.67;;;;;;;;;;4826012;29;20046;-95
2022/09/22 14:55:02;;;;;;;9.52;3.25;;;;;;;;;;4864013;29;20033;-96
2022/09/22 15:06:28;;;;;;;7.18;1.02;;;;;;;;;;5893201;23;20048;31
2022/09/22 15:08:56;;;;;;;1.73;0.70;;;;;;;;;;4860402;29;20639;-96
2022/09/22 15:11:44;;;;;;;2.38;0.70;;;;;;;;;;4881243;29;20049;-96
2022/09/22 15:14:39;;;;;;;;;;;;;;;;;;;;;
2022/09/22 15:19:58;;;;;;;0.90;0.40;;;;;;;;;;4881319;24;20060;-96
2022/09/22 15:22:33;;;;;;;1.35;0.60;;;;;;;;;;4860422;29;20045;-96
2022/09/22 15:25:14;;;;;;;1.40;0.60;;;;;;;;;;4872450;29;20029;-96
2022/09/22 15:43:05;;;;;;;1.10;0.60;;;;;;;;;;4758024;30;20044;-89
2022/09/22 15:45:33;;;;;;;1.33;0.60;;;;;;;;;;4773312;30;20119;-92
2022/09/22 15:48:14;;;;;;;1.85;0.80;;;;;;;;;;4776456;30;20043;-93
2022/09/22 15:50:54;;;;;;;;;;;;;;;;;;;;;
2022/09/22 15:56:27;;;;;;;2.70;0.98;;;;;;;;;;4815305;29;20035;-94
2022/09/22 16:02:41;;;;;;;;;;;;;;;;;;;;;
2022/09/22 16:08:13;;;;;;;5.53;1.33;;;;;;;;;;4867321;29;20513;-83
2022/09/22 16:10:40;;;;;;;3.15;1.45;;;;;;;;;;4846112;29;20482;-77
2022/09/22 16:13:07;;;;;;;4.43;1.60;;;;;;;;;;4863064;29;20029;-80
2022/09/22 16:15:34;;;;;;;4.05;1.60;;;;;;;;;;4846251;29;20026;-78
2022/09/22 16:18:00;;;;;;;3.90;1.42;;;;;;;;;;4845961;29;20054;-73
2022/09/22 16:20:26;;;;;;;3.83;1.77;;;;;;;;;;4846560;29;20394;-74
2022/09/22 16:22:52;;;;;;;3.78;1.42;;;;;;;;;;4846523;29;20041;-81
2022/09/22 16:25:19;;;;;;;2.63;1.33;;;;;;;;;;4846326;29;20120;-72
2022/09/22 16:27:45;;;;;;;2.63;1.50;;;;;;;;;;4846444;29;20036;-79
2022/09/22 16:30:11;;;;;;;4.45;1.70;;;;;;;;;;4846383;29;20029;-82
2022/09/22 16:32:37;;;;;;;7.30;2.65;;;;;;;;;;4846650;29;20029;-81
2022/09/22 16:35:04;;;;;;;7.07;3.15;;;;;;;;;;4862852;29;20459;-76
2022/09/22 16:37:30;;;;;;;10.52;5.03;;;;;;;;;;4846206;29;20030;-71
2022/09/22 16:39:56;;;;;;;9.40;4.70;;;;;;;;;;4846165;29;20081;-83
2022/09/22 16:42:22;;;;;;;10.50;3.75;;;;;;;;;;4862996;29;20112;-84
2022/09/22 16:44:48;;;;;;;8.63;3.50;;;;;;;;;;4862840;29;20040;-80
2022/09/22 16:47:19;;;;;;;4.55;2.40;;;;;;;;;;4845967;29;20030;-75
2022/09/22 16:49:48;;;;;;;4.70;1.80;;;;;;;;;;4846129;29;20033;-85
2022/09/22 16:52:14;;;;;;;6.43;2.05;;;;;;;;;;4845998;29;20112;-77
2022/09/22 16:54:40;;;;;;;3.70;1.70;;;;;;;;;;4845816;29;20062;-81
2022/09/22 16:57:06;;;;;;;2.80;1.70;;;;;;;;;;4846211;29;20037;-83
2022/09/22 16:59:32;;;;;;;2.92;1.67;;;;;;;;;;4846171;29;20036;-82
2022/09/22 17:01:58;;;;;;;4.22;1.60;;;;;;;;;;4846816;29;20206;-82
2022/09/22 17:04:25;;;;;;;3.72;1.75;;;;;;;;;;4862578;29;20085;-83
2022/09/22 17:06:52;;;;;;;7.05;2.53;;;;;;;;;;4846731;29;20025;-87
2022/09/22 17:09:18;;;;;;;6.38;2.50;;;;;;;;;;4846817;29;20033;-82
2022/09/22 17:11:46;;;;;;;5.63;2.85;;;;;;;;;;4846417;29;20037;-85
2022/09/22 17:14:14;;;;;;;8.30;2.85;;;;;;;;;;4846099;29;20061;-86
2022/09/22 17:16:48;;;;;;;7.68;3.40;;;;;;;;;;4846107;29;20124;-84
2022/09/22 17:19:18;;;;;;;6.63;3.63;;;;;;;;;;4845615;29;20062;-81
2022/09/22 17:21:45;;;;;;;6.65;2.38;;;;;;;;;;4846285;29;20037;-82
2022/09/22 17:24:11;;;;;;;4.70;2.60;;;;;;;;;;4846316;29;20029;-73
2022/09/22 17:26:48;;;;;;;4.82;2.28;;;;;;;;;;4848541;29;20021;-85
2022/09/22 17:29:23;;;;;;;5.30;2.33;;;;;;;;;;4846163;29;20029;-83
2022/09/22 17:31:50;;;;;;;4.05;2.03;;;;;;;;;;4845867;29;20136;-86
2022/09/22 17:34:16;;;;;;;5.53;2.38;;;;;;;;;;4845773;29;20089;-87
2022/09/22 17:36:42;;;;;;;7.40;2.63;;;;;;;;;;4845898;29;20029;-73
2022/09/22 17:39:09;;;;;;;3.70;2.40;;;;;;;;;;4845779;29;20037;-80
2022/09/22 17:41:35;;;;;;;5.97;2.75;;;;;;;;;;4845887;29;20033;-81
2022/09/22 17:44:02;;;;;;;6.70;2.70;;;;;;;;;;4845572;29;20040;-72
2022/09/22 17:46:30;;;;;;;6.38;2.50;;;;;;;;;;4876622;29;20025;-73
2022/09/22 17:57:13;;;;;;;6.88;2.17;;;;;;;;;;4862400;29;20109;-84
2022/09/22 17:59:40;;;;;;;5.07;2.45;;;;;;;;;;4845158;29;20041;-74
2022/09/22 18:02:07;;;;;;;4.72;2.47;;;;;;;;;;4844861;29;20037;-74
2022/09/22 18:04:35;;;;;;;8.23;2.42;;;;;;;;;;4845618;29;20498;-75
2022/09/22 18:07:04;;;;;;;4.20;2.28;;;;;;;;;;4869443;29;20546;-78
2022/09/22 18:09:31;;;;;;;7.68;2.35;;;;;;;;;;4827408;29;20456;-80
2022/09/22 18:11:57;;;;;;;6.47;2.63;;;;;;;;;;4843422;29;20059;-75
2022/09/22 18:14:24;;;;;;;8.48;2.85;;;;;;;;;;4826741;29;20034;-79
2022/09/22 18:16:51;;;;;;;7.68;3.03;;;;;;;;;;4827378;29;20037;-83
2022/09/22 18:19:17;;;;;;;5.97;2.28;;;;;;;;;;4826386;29;20145;-84
2022/09/22 18:21:44;;;;;;;3.92;2.22;;;;;;;;;;4826905;29;20030;-77
2022/09/22 18:24:11;;;;;;;5.82;2.10;;;;;;;;;;4826674;29;20030;-76
2022/09/22 18:26:37;;;;;;;8.13;2.33;;;;;;;;;;4825565;29;20468;-76
2022/09/22 18:29:08;;;;;;;6.80;2.85;;;;;;;;;;4826181;29;20399;-73
2022/09/22 18:31:35;;;;;;;9.88;3.67;;;;;;;;;;4840639;29;20025;-77
2022/09/22 18:34:02;;;;;;;8.52;3.53;;;;;;;;;;4844473;29;20419;-77
2022/09/22 18:36:28;;;;;;;6.88;3.40;;;;;;;;;;4860967;29;20468;-80
2022/09/22 18:38:55;;;;;;;9.27;4.82;;;;;;;;;;4829140;29;20030;-80
2022/09/22 18:41:21;;;;;;;21.92;7.28;;;;;;;;;;4840725;29;20516;-78
2022/09/22 18:43:52;;;;;;;25.33;9.77;;;;;;;;;;4841012;29;20445;-77
2022/09/22 18:46:19;;;;;;;34.13;10.00;;;;;;;;;;4841653;29;20090;-77
2022/09/22 18:49:02;;;;;;;29.10;7.03;;;;;;;;;;4841302;29;20125;-76
2022/09/22 18:51:30;;;;;;;14.57;4.40;;;;;;;;;;4841282;29;20224;-76
2022/09/22 18:53:56;;;;;;;12.02;4.57;;;;;;;;;;4842373;29;20395;-76
2022/09/22 18:56:26;;;;;;;12.43;4.45;;;;;;;;;;4856879;29;20041;-77
2022/09/22 18:58:53;;;;;;;12.80;3.92;;;;;;;;;;4843843;29;20042;-77
2022/09/22 19:01:21;;;;;;;10.63;4.30;;;;;;;;;;4843574;29;20398;-78
2022/09/22 19:03:48;;;;;;;7.85;3.75;;;;;;;;;;4844038;29;20424;-78
2022/09/22 19:06:14;;;;;;;6.28;3.60;;;;;;;;;;4844045;29;20078;-78
2022/09/22 19:08:40;;;;;;;6.80;3.20;;;;;;;;;;4844009;29;20029;-79
2022/09/22 19:11:07;;;;;;;6.28;3.20;;;;;;;;;;4843910;29;20025;-80
2022/09/22 19:13:34;;;;;;;6.03;2.40;;;;;;;;;;4844072;29;20054;-79
2022/09/22 19:16:03;;;;;;;6.90;2.85;;;;;;;;;;4844409;29;20038;-78
2022/09/22 19:18:30;;;;;;;9.40;2.53;;;;;;;;;;4843973;29;20056;-77
2022/09/22 19:20:57;;;;;;;5.40;2.50;;;;;;;;;;4844893;29;20041;-77
2022/09/22 19:23:23;;;;;;;4.55;2.05;;;;;;;;;;4844173;29;20041;-81
2022/09/22 19:25:50;;;;;;;5.15;2.40;;;;;;;;;;4843897;29;20037;-78
2022/09/22 19:28:17;;;;;;;4.22;2.15;;;;;;;;;;4844042;29;20033;-79
2022/09/22 19:30:44;;;;;;;7.38;2.53;;;;;;;;;;4860803;29;20026;-78
2022/09/22 19:33:10;;;;;;;9.07;1.80;;;;;;;;;;4860791;29;20034;-78
2022/09/22 19:35:37;;;;;;;4.32;2.15;;;;;;;;;;4861799;29;20033;-78
2022/09/22 19:38:03;;;;;;;8.40;2.28;;;;;;;;;;4845892;29;20029;-78
2022/09/22 19:40:30;;;;;;;3.10;1.50;;;;;;;;;;4847126;29;20053;-80
2022/09/22 19:42:56;;;;;;;3.58;1.65;;;;;;;;;;4847408;29;20041;-82
2022/09/22 19:45:24;;;;;;;3.05;1.52;;;;;;;;;;4863966;29;20058;-81
2022/09/22 19:47:50;;;;;;;6.78;1.67;;;;;;;;;;4847422;29;20470;-83
2022/09/22 19:50:17;;;;;;;3.55;1.73;;;;;;;;;;4847151;29;20037;-82
2022/09/22 19:52:43;;;;;;;2.75;1.52;;;;;;;;;;4863824;29;20040;-82
2022/09/22 19:55:12;;;;;;;3.45;1.75;;;;;;;;;;4847311;29;20388;-78
2022/09/22 19:57:42;;;;;;;2.25;1.42;;;;;;;;;;4847094;29;20037;-79
2022/09/22 20:00:10;;;;;;;3.70;1.70;;;;;;;;;;4847259;29;20036;-82
2022/09/22 20:02:37;;;;;;;3.88;1.60;;;;;;;;;;4846959;29;20041;-80
2022/09/22 20:05:04;;;;;;;2.65;1.38;;;;;;;;;;4847158;29;20140;-80
2022/09/22 20:07:30;;;;;;;2.60;1.27;;;;;;;;;;4846661;29;20033;-80
2022/09/22 20:09:56;;;;;;;3.67;1.77;;;;;;;;;;4863464;29;20090;-81
2022/09/22 20:12:23;;;;;;;3.90;1.95;;;;;;;;;;4847056;29;20033;-81
2022/09/22 20:14:50;;;;;;;5.10;2.13;;;;;;;;;;4847338;29;20120;-81
2022/09/22 20:17:16;;;;;;;9.68;2.58;;;;;;;;;;4847091;29;20081;-83
2022/09/22 20:19:43;;;;;;;12.07;4.10;;;;;;;;;;4846912;29;20388;-80
2022/09/22 20:22:28;;;;;;;12.38;4.13;;;;;;;;;;4844935;29;20431;-79
2022/09/22 20:24:59;;;;;;;7.80;3.60;;;;;;;;;;4846118;29;20166;-81
2022/09/22 20:27:35;;;;;;;10.95;4.50;;;;;;;;;;4847123;29;20501;-83
2022/09/22 20:30:02;;;;;;;11.10;4.20;;;;;;;;;;4847240;29;20025;-82
2022/09/22 20:32:33;;;;;;;11.50;4.40;;;;;;;;;;4863215;29;20025;-81
2022/09/22 20:35:00;;;;;;;12.05;5.20;;;;;;;;;;4846802;29;20037;-82
2022/09/22 20:37:26;;;;;;;8.85;4.32;;;;;;;;;;4846414;29;20030;-81
2022/09/22 20:39:52;;;;;;;7.53;3.58;;;;;;;;;;4846461;29;20376;-81
2022/09/22 20:42:18;;;;;;;9.98;3.85;;;;;;;;;;4846241;29;20132;-82
2022/09/22 20:44:45;;;;;;;10.40;3.20;;;;;;;;;;4846371;29;20122;-78
2022/09/22 20:47:15;;;;;;;5.68;2.75;;;;;;;;;;4846344;29;20037;-83
2022/09/22 20:49:42;;;;;;;4.70;2.55;;;;;;;;;;4845800;29;20025;-83
2022/09/22 20:52:13;;;;;;;4.72;1.95;;;;;;;;;;4846228;29;20030;-81
2022/09/22 20:54:39;;;;;;;6.00;2.42;;;;;;;;;;4846395;29;20040;-83
2022/09/22 20:57:05;;;;;;;3.30;1.77;;;;;;;;;;4846349;29;20116;-79
2022/09/22 20:59:32;;;;;;;5.95;2.00;;;;;;;;;;4845924;29;20034;-81
2022/09/22 21:01:59;;;;;;;5.38;1.85;;;;;;;;;;4846510;29;20044;-84
2022/09/22 21:04:26;;;;;;;8.98;1.85;;;;;;;;;;4846314;29;20036;-84
2022/09/22 21:06:54;;;;;;;4.20;1.73;;;;;;;;;;4846007;29;20089;-81
2022/09/22 21:12:05;;;;;;;4.22;2.25;;;;;;;;;;4862813;29;20076;-81
2022/09/22 21:14:32;;;;;;;4.95;2.50;;;;;;;;;;4846015;29;20052;-82
2022/09/22 21:17:01;;;;;;;3.60;1.67;;;;;;;;;;4845976;29;20033;-82
2022/09/22 21:19:31;;;;;;;3.65;1.73;;;;;;;;;;4846004;29;20096;-80
2022/09/22 21:21:58;;;;;;;4.53;2.00;;;;;;;;;;4845782;29;20514;-83
2022/09/22 21:24:30;;;;;;;10.40;1.70;;;;;;;;;;4846085;29;20049;-82
2022/09/22 21:26:56;;;;;;;3.17;1.70;;;;;;;;;;4862703;29;20475;-83
2022/09/22 21:29:31;;;;;;;2.60;1.13;;;;;;;;;;4845819;29;20033;-83
2022/09/22 21:31:59;;;;;;;2.63;1.17;;;;;;;;;;4846253;29;20030;-82
2022/09/22 21:34:26;;;;;;;2.13;1.25;;;;;;;;;;4845854;29;20025;-80
2022/09/22 21:36:52;;;;;;;5.20;1.27;;;;;;;;;;4846135;29;20029;-82